Terminal Aerodrome Forecast
Issued by NWS Boise, ID

Home | Current Version | Previous Version | Text Only | Print | Product List | Glossary On
Versions: 1 2 3 4 5 6 7 8 9 10 11 12 13 14 15 16 17
000
FTUS45 KBOI 232344
TAFBNO
TAF
KBNO 232344Z 2400/2424 22011KT P6SM SKC
     FM240300 23006KT P6SM OVC040
     FM241200 21011KT 3SM -SN BR OVC020
     FM241800 25018G28KT 5SM -SN BR OVC040
     FM242100 26022G35KT P6SM BKN060=

USA.gov is the U.S. government's official web portal to all federal, state and local government web resources and services.